sensor_id;sensor_type;location;lat;lon;timestamp;P1;durP1;ratioP1;P2;durP2;ratioP2
25327;SDS011;13279;51.300;12.394;2024-03-25T00:02:09;6.10;;;3.03;;
25327;SDS011;13279;51.300;12.394;2024-03-25T00:04:37;9.33;;;3.30;;
25327;SDS011;13279;51.300;12.394;2024-03-25T00:07:03;7.47;;;3.80;;
25327;SDS011;13279;51.300;12.394;2024-03-25T00:09:30;12.27;;;4.67;;
25327;SDS011;13279;51.300;12.394;2024-03-25T00:11:57;7.47;;;4.17;;
25327;SDS011;13279;51.300;12.394;2024-03-25T00:14:24;5.63;;;4.10;;
25327;SDS011;13279;51.300;12.394;2024-03-25T00:16:50;8.20;;;3.97;;
25327;SDS011;13279;51.300;12.394;2024-03-25T00:19:19;11.03;;;4.20;;
25327;SDS011;13279;51.300;12.394;2024-03-25T00:21:45;7.93;;;3.97;;
25327;SDS011;13279;51.300;12.394;2024-03-25T00:24:12;8.70;;;3.93;;
25327;SDS011;13279;51.300;12.394;2024-03-25T00:26:39;4.67;;;3.63;;
25327;SDS011;13279;51.300;12.394;2024-03-25T00:29:06;4.03;;;3.23;;
25327;SDS011;13279;51.300;12.394;2024-03-25T00:31:33;7.27;;;3.27;;
25327;SDS011;13279;51.300;12.394;2024-03-25T00:34:01;11.67;;;3.87;;
25327;SDS011;13279;51.300;12.394;2024-03-25T00:36:28;6.77;;;3.53;;
25327;SDS011;13279;51.300;12.394;2024-03-25T00:38:56;4.63;;;3.20;;
25327;SDS011;13279;51.300;12.394;2024-03-25T00:41:22;10.07;;;3.67;;
25327;SDS011;13279;51.300;12.394;2024-03-25T00:43:49;4.97;;;3.13;;
25327;SDS011;13279;51.300;12.394;2024-03-25T00:46:15;4.67;;;3.17;;
25327;SDS011;13279;51.300;12.394;2024-03-25T00:48:43;7.10;;;3.40;;
25327;SDS011;13279;51.300;12.394;2024-03-25T00:51:09;7.30;;;2.87;;
25327;SDS011;13279;51.300;12.394;2024-03-25T00:53:38;4.23;;;3.43;;
25327;SDS011;13279;51.300;12.394;2024-03-25T00:56:04;3.30;;;3.00;;
25327;SDS011;13279;51.300;12.394;2024-03-25T00:58:32;4.47;;;3.20;;
25327;SDS011;13279;51.300;12.394;2024-03-25T01:00:58;5.67;;;2.90;;
25327;SDS011;13279;51.300;12.394;2024-03-25T01:03:26;7.27;;;4.10;;
25327;SDS011;13279;51.300;12.394;2024-03-25T01:05:52;10.03;;;3.97;;
25327;SDS011;13279;51.300;12.394;2024-03-25T01:08:20;6.07;;;4.00;;
25327;SDS011;13279;51.300;12.394;2024-03-25T01:10:48;8.63;;;4.30;;
25327;SDS011;13279;51.300;12.394;2024-03-25T01:13:16;9.60;;;5.03;;
25327;SDS011;13279;51.300;12.394;2024-03-25T01:15:42;10.53;;;5.43;;
25327;SDS011;13279;51.300;12.394;2024-03-25T01:18:10;10.40;;;4.70;;
25327;SDS011;13279;51.300;12.394;2024-03-25T01:20:36;9.97;;;4.57;;
25327;SDS011;13279;51.300;12.394;2024-03-25T01:23:04;8.73;;;4.03;;
25327;SDS011;13279;51.300;12.394;2024-03-25T01:25:30;8.90;;;4.40;;
25327;SDS011;13279;51.300;12.394;2024-03-25T01:27:58;7.57;;;4.37;;
25327;SDS011;13279;51.300;12.394;2024-03-25T01:30:25;9.50;;;4.17;;
25327;SDS011;13279;51.300;12.394;2024-03-25T01:32:53;10.00;;;4.67;;
25327;SDS011;13279;51.300;12.394;2024-03-25T01:35:20;9.30;;;4.13;;
25327;SDS011;13279;51.300;12.394;2024-03-25T01:37:47;7.03;;;4.27;;
25327;SDS011;13279;51.300;12.394;2024-03-25T01:40:15;9.57;;;4.50;;
25327;SDS011;13279;51.300;12.394;2024-03-25T01:42:42;6.33;;;4.10;;
25327;SDS011;13279;51.300;12.394;2024-03-25T01:45:11;7.50;;;3.00;;
25327;SDS011;13279;51.300;12.394;2024-03-25T01:47:39;3.00;;;2.67;;
25327;SDS011;13279;51.300;12.394;2024-03-25T01:50:06;9.37;;;2.93;;
25327;SDS011;13279;51.300;12.394;2024-03-25T01:52:34;5.80;;;2.20;;
25327;SDS011;13279;51.300;12.394;2024-03-25T01:55:00;6.53;;;2.63;;
25327;SDS011;13279;51.300;12.394;2024-03-25T01:57:29;5.43;;;2.43;;
25327;SDS011;13279;51.300;12.394;2024-03-25T01:59:55;3.63;;;2.40;;
25327;SDS011;13279;51.300;12.394;2024-03-25T02:02:25;4.47;;;2.80;;
25327;SDS011;13279;51.300;12.394;2024-03-25T02:08:39;11.90;;;3.00;;
25327;SDS011;13279;51.300;12.394;2024-03-25T02:11:07;4.77;;;2.70;;
25327;SDS011;13279;51.300;12.394;2024-03-25T02:13:34;5.90;;;2.90;;
25327;SDS011;13279;51.300;12.394;2024-03-25T02:16:02;5.27;;;2.63;;
25327;SDS011;13279;51.300;12.394;2024-03-25T02:18:30;8.77;;;3.03;;
25327;SDS011;13279;51.300;12.394;2024-03-25T02:20:58;7.77;;;3.20;;
25327;SDS011;13279;51.300;12.394;2024-03-25T02:23:25;3.33;;;2.30;;
25327;SDS011;13279;51.300;12.394;2024-03-25T02:25:54;10.97;;;2.60;;
25327;SDS011;13279;51.300;12.394;2024-03-25T02:28:20;6.10;;;2.53;;
25327;SDS011;13279;51.300;12.394;2024-03-25T02:30:47;6.10;;;2.20;;
25327;SDS011;13279;51.300;12.394;2024-03-25T02:33:14;4.20;;;2.00;;
25327;SDS011;13279;51.300;12.394;2024-03-25T02:35:42;5.03;;;2.10;;
25327;SDS011;13279;51.300;12.394;2024-03-25T02:38:09;3.83;;;2.07;;
25327;SDS011;13279;51.300;12.394;2024-03-25T02:40:39;3.73;;;2.10;;
25327;SDS011;13279;51.300;12.394;2024-03-25T02:43:06;3.17;;;1.97;;
25327;SDS011;13279;51.300;12.394;2024-03-25T02:45:34;3.53;;;2.17;;
25327;SDS011;13279;51.300;12.394;2024-03-25T02:48:00;3.10;;;1.77;;
25327;SDS011;13279;51.300;12.394;2024-03-25T02:50:27;5.20;;;2.07;;
25327;SDS011;13279;51.300;12.394;2024-03-25T02:52:53;2.97;;;1.93;;
25327;SDS011;13279;51.300;12.394;2024-03-25T02:55:21;2.90;;;2.03;;
25327;SDS011;13279;51.300;12.394;2024-03-25T02:57:47;5.80;;;2.03;;
25327;SDS011;13279;51.300;12.394;2024-03-25T03:00:16;4.60;;;2.00;;
25327;SDS011;13279;51.300;12.394;2024-03-25T03:02:42;7.70;;;2.27;;
25327;SDS011;13279;51.300;12.394;2024-03-25T03:05:10;5.70;;;1.83;;
25327;SDS011;13279;51.300;12.394;2024-03-25T03:07:36;5.23;;;2.53;;
25327;SDS011;13279;51.300;12.394;2024-03-25T03:10:04;4.97;;;2.17;;
25327;SDS011;13279;51.300;12.394;2024-03-25T03:12:30;5.00;;;2.00;;
25327;SDS011;13279;51.300;12.394;2024-03-25T03:14:58;3.70;;;1.97;;
25327;SDS011;13279;51.300;12.394;2024-03-25T03:17:26;2.70;;;1.50;;
25327;SDS011;13279;51.300;12.394;2024-03-25T03:19:53;2.10;;;1.47;;
25327;SDS011;13279;51.300;12.394;2024-03-25T03:22:19;4.57;;;1.60;;
25327;SDS011;13279;51.300;12.394;2024-03-25T03:24:46;2.03;;;1.40;;
25327;SDS011;13279;51.300;12.394;2024-03-25T03:27:14;2.60;;;1.50;;
25327;SDS011;13279;51.300;12.394;2024-03-25T03:29:42;2.67;;;1.57;;
25327;SDS011;13279;51.300;12.394;2024-03-25T03:32:08;4.03;;;1.40;;
25327;SDS011;13279;51.300;12.394;2024-03-25T03:34:37;2.43;;;1.33;;
25327;SDS011;13279;51.300;12.394;2024-03-25T03:37:04;8.47;;;1.57;;
25327;SDS011;13279;51.300;12.394;2024-03-25T03:39:31;3.20;;;1.30;;
25327;SDS011;13279;51.300;12.394;2024-03-25T03:41:57;7.53;;;1.80;;
25327;SDS011;13279;51.300;12.394;2024-03-25T03:44:25;4.33;;;1.20;;
25327;SDS011;13279;51.300;12.394;2024-03-25T03:46:51;3.57;;;1.57;;
25327;SDS011;13279;51.300;12.394;2024-03-25T03:49:19;1.30;;;1.20;;
25327;SDS011;13279;51.300;12.394;2024-03-25T03:51:47;5.00;;;1.57;;
25327;SDS011;13279;51.300;12.394;2024-03-25T03:54:14;3.43;;;1.83;;
25327;SDS011;13279;51.300;12.394;2024-03-25T03:56:41;2.93;;;1.60;;
25327;SDS011;13279;51.300;12.394;2024-03-25T03:59:08;1.80;;;1.67;;
25327;SDS011;13279;51.300;12.394;2024-03-25T04:01:34;2.53;;;1.40;;
25327;SDS011;13279;51.300;12.394;2024-03-25T04:04:02;2.00;;;1.80;;
25327;SDS011;13279;51.300;12.394;2024-03-25T04:06:28;2.63;;;1.60;;
25327;SDS011;13279;51.300;12.394;2024-03-25T04:08:57;3.57;;;2.40;;
25327;SDS011;13279;51.300;12.394;2024-03-25T04:11:24;4.53;;;1.83;;
25327;SDS011;13279;51.300;12.394;2024-03-25T04:13:51;8.17;;;2.00;;
25327;SDS011;13279;51.300;12.394;2024-03-25T04:16:18;1.67;;;1.57;;
25327;SDS011;13279;51.300;12.394;2024-03-25T04:18:47;3.83;;;1.60;;
25327;SDS011;13279;51.300;12.394;2024-03-25T04:21:13;4.90;;;2.40;;
25327;SDS011;13279;51.300;12.394;2024-03-25T04:23:41;5.70;;;2.33;;
25327;SDS011;13279;51.300;12.394;2024-03-25T04:26:10;2.37;;;1.53;;
25327;SDS011;13279;51.300;12.394;2024-03-25T04:28:38;5.30;;;2.00;;
25327;SDS011;13279;51.300;12.394;2024-03-25T04:31:04;3.77;;;1.80;;
25327;SDS011;13279;51.300;12.394;2024-03-25T04:33:31;8.67;;;2.23;;
25327;SDS011;13279;51.300;12.394;2024-03-25T04:35:58;6.70;;;2.23;;
25327;SDS011;13279;51.300;12.394;2024-03-25T04:38:25;5.30;;;2.10;;
25327;SDS011;13279;51.300;12.394;2024-03-25T04:40:51;7.47;;;2.40;;
25327;SDS011;13279;51.300;12.394;2024-03-25T04:43:19;6.97;;;1.70;;
25327;SDS011;13279;51.300;12.394;2024-03-25T04:45:46;7.33;;;2.73;;
25327;SDS011;13279;51.300;12.394;2024-03-25T04:48:12;4.33;;;2.73;;
25327;SDS011;13279;51.300;12.394;2024-03-25T04:50:38;7.50;;;2.60;;
25327;SDS011;13279;51.300;12.394;2024-03-25T04:53:05;6.87;;;3.30;;
25327;SDS011;13279;51.300;12.394;2024-03-25T04:55:31;4.63;;;1.90;;
25327;SDS011;13279;51.300;12.394;2024-03-25T04:57:58;5.80;;;1.97;;
25327;SDS011;13279;51.300;12.394;2024-03-25T05:00:25;7.20;;;2.40;;
25327;SDS011;13279;51.300;12.394;2024-03-25T05:02:52;2.80;;;2.07;;
25327;SDS011;13279;51.300;12.394;2024-03-25T05:05:18;5.23;;;3.47;;
25327;SDS011;13279;51.300;12.394;2024-03-25T05:07:44;6.37;;;3.10;;
25327;SDS011;13279;51.300;12.394;2024-03-25T05:10:10;8.23;;;3.00;;
25327;SDS011;13279;51.300;12.394;2024-03-25T05:12:37;7.63;;;3.23;;
25327;SDS011;13279;51.300;12.394;2024-03-25T05:15:04;9.27;;;2.80;;
25327;SDS011;13279;51.300;12.394;2024-03-25T05:17:33;7.03;;;2.47;;
25327;SDS011;13279;51.300;12.394;2024-03-25T05:19:59;8.73;;;2.23;;
25327;SDS011;13279;51.300;12.394;2024-03-25T05:22:25;8.73;;;2.53;;
25327;SDS011;13279;51.300;12.394;2024-03-25T05:24:52;8.30;;;2.03;;
25327;SDS011;13279;51.300;12.394;2024-03-25T05:27:18;3.57;;;1.60;;
25327;SDS011;13279;51.300;12.394;2024-03-25T05:29:45;4.03;;;2.00;;
25327;SDS011;13279;51.300;12.394;2024-03-25T05:32:11;4.60;;;2.10;;
25327;SDS011;13279;51.300;12.394;2024-03-25T05:34:39;4.23;;;1.70;;
25327;SDS011;13279;51.300;12.394;2024-03-25T05:37:05;3.47;;;1.70;;
25327;SDS011;13279;51.300;12.394;2024-03-25T05:39:31;2.17;;;1.37;;
25327;SDS011;13279;51.300;12.394;2024-03-25T05:41:58;2.77;;;1.30;;
25327;SDS011;13279;51.300;12.394;2024-03-25T05:44:24;4.93;;;1.27;;
25327;SDS011;13279;51.300;12.394;2024-03-25T05:46:50;5.50;;;1.97;;
25327;SDS011;13279;51.300;12.394;2024-03-25T05:49:16;3.97;;;1.40;;
25327;SDS011;13279;51.300;12.394;2024-03-25T05:51:44;3.70;;;2.40;;
25327;SDS011;13279;51.300;12.394;2024-03-25T05:54:10;4.13;;;2.27;;
25327;SDS011;13279;51.300;12.394;2024-03-25T05:56:37;3.63;;;2.20;;
25327;SDS011;13279;51.300;12.394;2024-03-25T05:59:03;6.63;;;2.10;;
25327;SDS011;13279;51.300;12.394;2024-03-25T06:01:29;4.27;;;2.20;;
25327;SDS011;13279;51.300;12.394;2024-03-25T06:03:56;2.57;;;1.93;;
25327;SDS011;13279;51.300;12.394;2024-03-25T06:06:22;6.83;;;1.67;;
25327;SDS011;13279;51.300;12.394;2024-03-25T06:08:50;4.03;;;1.90;;
25327;SDS011;13279;51.300;12.394;2024-03-25T06:11:16;5.77;;;1.70;;
25327;SDS011;13279;51.300;12.394;2024-03-25T06:13:45;2.27;;;1.93;;
25327;SDS011;13279;51.300;12.394;2024-03-25T06:16:11;3.00;;;1.53;;
25327;SDS011;13279;51.300;12.394;2024-03-25T06:18:38;6.83;;;2.07;;
25327;SDS011;13279;51.300;12.394;2024-03-25T06:21:04;4.17;;;1.97;;
25327;SDS011;13279;51.300;12.394;2024-03-25T06:23:31;7.07;;;1.80;;
25327;SDS011;13279;51.300;12.394;2024-03-25T06:25:58;5.57;;;1.87;;
25327;SDS011;13279;51.300;12.394;2024-03-25T06:28:25;5.20;;;2.50;;
25327;SDS011;13279;51.300;12.394;2024-03-25T06:30:51;4.40;;;2.47;;
25327;SDS011;13279;51.300;12.394;2024-03-25T06:33:37;4.43;;;2.00;;
25327;SDS011;13279;51.300;12.394;2024-03-25T06:36:22;8.07;;;1.80;;
25327;SDS011;13279;51.300;12.394;2024-03-25T06:38:48;4.37;;;2.17;;
25327;SDS011;13279;51.300;12.394;2024-03-25T06:41:16;9.13;;;2.07;;
25327;SDS011;13279;51.300;12.394;2024-03-25T06:43:42;3.10;;;1.80;;
25327;SDS011;13279;51.300;12.394;2024-03-25T06:46:09;3.30;;;1.70;;
25327;SDS011;13279;51.300;12.394;2024-03-25T06:48:35;7.07;;;2.30;;
25327;SDS011;13279;51.300;12.394;2024-03-25T06:51:04;2.37;;;1.90;;
25327;SDS011;13279;51.300;12.394;2024-03-25T06:53:30;4.43;;;2.33;;
25327;SDS011;13279;51.300;12.394;2024-03-25T06:55:57;3.30;;;2.10;;
25327;SDS011;13279;51.300;12.394;2024-03-25T06:58:26;2.70;;;1.90;;
25327;SDS011;13279;51.300;12.394;2024-03-25T07:00:53;4.43;;;2.00;;
25327;SDS011;13279;51.300;12.394;2024-03-25T07:03:21;4.30;;;1.83;;
25327;SDS011;13279;51.300;12.394;2024-03-25T07:05:48;5.27;;;2.27;;
25327;SDS011;13279;51.300;12.394;2024-03-25T07:08:15;5.53;;;3.17;;
25327;SDS011;13279;51.300;12.394;2024-03-25T07:10:42;9.07;;;3.10;;
25327;SDS011;13279;51.300;12.394;2024-03-25T07:13:08;3.30;;;2.60;;
25327;SDS011;13279;51.300;12.394;2024-03-25T07:15:36;4.93;;;2.53;;
25327;SDS011;13279;51.300;12.394;2024-03-25T07:18:03;3.20;;;2.50;;
25327;SDS011;13279;51.300;12.394;2024-03-25T07:20:30;5.00;;;2.33;;
25327;SDS011;13279;51.300;12.394;2024-03-25T07:22:56;5.67;;;2.23;;
25327;SDS011;13279;51.300;12.394;2024-03-25T07:25:22;5.20;;;2.10;;
25327;SDS011;13279;51.300;12.394;2024-03-25T07:27:49;5.33;;;2.23;;
25327;SDS011;13279;51.300;12.394;2024-03-25T07:30:15;3.30;;;2.13;;
25327;SDS011;13279;51.300;12.394;2024-03-25T07:32:43;2.70;;;1.67;;
25327;SDS011;13279;51.300;12.394;2024-03-25T07:35:10;2.60;;;1.70;;
25327;SDS011;13279;51.300;12.394;2024-03-25T07:37:36;3.50;;;1.70;;
25327;SDS011;13279;51.300;12.394;2024-03-25T07:40:06;3.23;;;1.30;;
25327;SDS011;13279;51.300;12.394;2024-03-25T07:42:35;4.53;;;1.60;;
25327;SDS011;13279;51.300;12.394;2024-03-25T07:45:01;4.23;;;1.43;;
25327;SDS011;13279;51.300;12.394;2024-03-25T07:47:28;1.30;;;1.20;;
25327;SDS011;13279;51.300;12.394;2024-03-25T07:49:55;6.23;;;2.13;;
25327;SDS011;13279;51.300;12.394;2024-03-25T07:52:21;1.27;;;1.10;;
25327;SDS011;13279;51.300;12.394;2024-03-25T07:54:48;3.33;;;1.43;;
25327;SDS011;13279;51.300;12.394;2024-03-25T07:57:14;5.03;;;1.17;;
25327;SDS011;13279;51.300;12.394;2024-03-25T07:59:41;2.13;;;1.50;;
25327;SDS011;13279;51.300;12.394;2024-03-25T08:02:08;1.27;;;1.17;;
25327;SDS011;13279;51.300;12.394;2024-03-25T08:04:34;2.43;;;1.33;;
25327;SDS011;13279;51.300;12.394;2024-03-25T08:07:02;3.37;;;1.40;;
25327;SDS011;13279;51.300;12.394;2024-03-25T08:09:28;13.73;;;2.23;;
25327;SDS011;13279;51.300;12.394;2024-03-25T08:11:54;4.03;;;1.77;;
25327;SDS011;13279;51.300;12.394;2024-03-25T08:14:20;6.73;;;1.30;;
25327;SDS011;13279;51.300;12.394;2024-03-25T08:16:48;3.43;;;1.70;;
25327;SDS011;13279;51.300;12.394;2024-03-25T08:19:14;4.97;;;1.90;;
25327;SDS011;13279;51.300;12.394;2024-03-25T08:21:40;2.83;;;1.23;;
25327;SDS011;13279;51.300;12.394;2024-03-25T08:24:08;5.50;;;2.07;;
25327;SDS011;13279;51.300;12.394;2024-03-25T08:26:34;4.97;;;2.00;;
25327;SDS011;13279;51.300;12.394;2024-03-25T08:29:00;3.93;;;2.07;;
25327;SDS011;13279;51.300;12.394;2024-03-25T08:31:27;7.87;;;2.03;;
25327;SDS011;13279;51.300;12.394;2024-03-25T08:33:53;7.33;;;2.10;;
25327;SDS011;13279;51.300;12.394;2024-03-25T08:36:20;3.63;;;1.73;;
25327;SDS011;13279;51.300;12.394;2024-03-25T08:38:46;4.40;;;2.43;;
25327;SDS011;13279;51.300;12.394;2024-03-25T08:41:13;6.37;;;1.70;;
25327;SDS011;13279;51.300;12.394;2024-03-25T08:43:40;1.77;;;1.67;;
25327;SDS011;13279;51.300;12.394;2024-03-25T08:46:06;9.37;;;2.40;;
25327;SDS011;13279;51.300;12.394;2024-03-25T08:48:32;6.70;;;1.90;;
25327;SDS011;13279;51.300;12.394;2024-03-25T08:50:59;1.57;;;1.47;;
25327;SDS011;13279;51.300;12.394;2024-03-25T08:53:25;4.67;;;1.30;;
25327;SDS011;13279;51.300;12.394;2024-03-25T08:55:51;2.10;;;1.47;;
25327;SDS011;13279;51.300;12.394;2024-03-25T08:58:19;2.03;;;1.20;;
25327;SDS011;13279;51.300;12.394;2024-03-25T09:00:46;1.77;;;1.27;;
25327;SDS011;13279;51.300;12.394;2024-03-25T09:03:12;5.17;;;1.90;;
25327;SDS011;13279;51.300;12.394;2024-03-25T09:05:38;2.57;;;2.00;;
25327;SDS011;13279;51.300;12.394;2024-03-25T09:08:08;2.07;;;1.70;;
25327;SDS011;13279;51.300;12.394;2024-03-25T09:10:34;6.73;;;1.70;;
25327;SDS011;13279;51.300;12.394;2024-03-25T09:13:21;1.70;;;1.27;;
25327;SDS011;13279;51.300;12.394;2024-03-25T09:15:47;3.90;;;1.67;;
25327;SDS011;13279;51.300;12.394;2024-03-25T09:18:14;2.17;;;1.33;;
25327;SDS011;13279;51.300;12.394;2024-03-25T09:20:40;4.23;;;2.20;;
25327;SDS011;13279;51.300;12.394;2024-03-25T09:23:06;2.80;;;1.60;;
25327;SDS011;13279;51.300;12.394;2024-03-25T09:25:32;1.77;;;1.50;;
25327;SDS011;13279;51.300;12.394;2024-03-25T09:27:59;3.90;;;2.10;;
25327;SDS011;13279;51.300;12.394;2024-03-25T09:30:26;4.90;;;2.03;;
25327;SDS011;13279;51.300;12.394;2024-03-25T09:32:53;3.07;;;2.03;;
25327;SDS011;13279;51.300;12.394;2024-03-25T09:35:19;4.93;;;2.17;;
25327;SDS011;13279;51.300;12.394;2024-03-25T09:37:46;3.27;;;2.20;;
25327;SDS011;13279;51.300;12.394;2024-03-25T09:40:12;8.27;;;1.93;;
25327;SDS011;13279;51.300;12.394;2024-03-25T09:42:41;4.83;;;2.47;;
25327;SDS011;13279;51.300;12.394;2024-03-25T09:45:12;3.77;;;2.00;;
25327;SDS011;13279;51.300;12.394;2024-03-25T09:47:43;2.33;;;1.73;;
25327;SDS011;13279;51.300;12.394;2024-03-25T09:50:12;2.40;;;2.20;;
25327;SDS011;13279;51.300;12.394;2024-03-25T09:52:38;5.13;;;3.87;;
25327;SDS011;13279;51.300;12.394;2024-03-25T09:55:05;6.93;;;2.67;;
25327;SDS011;13279;51.300;12.394;2024-03-25T09:57:33;6.50;;;2.77;;
25327;SDS011;13279;51.300;12.394;2024-03-25T10:00:00;5.63;;;2.50;;
25327;SDS011;13279;51.300;12.394;2024-03-25T10:02:38;5.27;;;2.63;;
25327;SDS011;13279;51.300;12.394;2024-03-25T10:05:08;2.47;;;1.70;;
25327;SDS011;13279;51.300;12.394;2024-03-25T10:07:34;3.27;;;1.70;;
25327;SDS011;13279;51.300;12.394;2024-03-25T10:10:03;7.73;;;1.70;;
25327;SDS011;13279;51.300;12.394;2024-03-25T10:12:29;8.20;;;2.37;;
25327;SDS011;13279;51.300;12.394;2024-03-25T10:14:56;3.50;;;2.10;;
25327;SDS011;13279;51.300;12.394;2024-03-25T10:17:23;4.33;;;2.13;;
25327;SDS011;13279;51.300;12.394;2024-03-25T10:19:49;5.93;;;2.70;;
25327;SDS011;13279;51.300;12.394;2024-03-25T10:22:17;8.33;;;2.73;;
25327;SDS011;13279;51.300;12.394;2024-03-25T10:24:44;6.03;;;2.90;;
25327;SDS011;13279;51.300;12.394;2024-03-25T10:27:10;3.83;;;2.17;;
25327;SDS011;13279;51.300;12.394;2024-03-25T10:29:42;5.00;;;2.50;;
25327;SDS011;13279;51.300;12.394;2024-03-25T10:32:09;2.77;;;2.00;;
25327;SDS011;13279;51.300;12.394;2024-03-25T10:34:35;6.40;;;2.10;;
25327;SDS011;13279;51.300;12.394;2024-03-25T10:37:01;5.63;;;2.10;;
25327;SDS011;13279;51.300;12.394;2024-03-25T10:39:32;10.50;;;1.80;;
25327;SDS011;13279;51.300;12.394;2024-03-25T10:42:02;2.70;;;1.50;;
25327;SDS011;13279;51.300;12.394;2024-03-25T10:44:30;5.67;;;1.60;;
25327;SDS011;13279;51.300;12.394;2024-03-25T10:47:00;1.67;;;1.57;;
25327;SDS011;13279;51.300;12.394;2024-03-25T10:49:32;1.93;;;1.30;;
25327;SDS011;13279;51.300;12.394;2024-03-25T10:52:00;9.77;;;1.53;;
25327;SDS011;13279;51.300;12.394;2024-03-25T10:54:29;3.00;;;1.50;;
25327;SDS011;13279;51.300;12.394;2024-03-25T10:56:59;3.80;;;1.80;;
25327;SDS011;13279;51.300;12.394;2024-03-25T10:59:28;3.00;;;1.50;;
25327;SDS011;13279;51.300;12.394;2024-03-25T11:01:56;3.77;;;2.47;;
25327;SDS011;13279;51.300;12.394;2024-03-25T11:04:22;5.03;;;1.83;;
25327;SDS011;13279;51.300;12.394;2024-03-25T11:06:49;2.57;;;1.80;;
25327;SDS011;13279;51.300;12.394;2024-03-25T11:09:22;9.07;;;1.90;;
25327;SDS011;13279;51.300;12.394;2024-03-25T11:11:53;3.73;;;1.40;;
25327;SDS011;13279;51.300;12.394;2024-03-25T11:14:19;7.27;;;1.93;;
25327;SDS011;13279;51.300;12.394;2024-03-25T11:16:53;4.57;;;1.30;;
25327;SDS011;13279;51.300;12.394;2024-03-25T11:19:20;3.63;;;1.80;;
25327;SDS011;13279;51.300;12.394;2024-03-25T11:21:50;7.00;;;1.50;;
25327;SDS011;13279;51.300;12.394;2024-03-25T11:24:26;2.03;;;1.00;;
25327;SDS011;13279;51.300;12.394;2024-03-25T11:26:54;2.67;;;1.37;;
25327;SDS011;13279;51.300;12.394;2024-03-25T11:29:21;2.30;;;1.40;;
25327;SDS011;13279;51.300;12.394;2024-03-25T11:31:48;2.87;;;1.37;;
25327;SDS011;13279;51.300;12.394;2024-03-25T11:34:18;2.63;;;1.70;;
25327;SDS011;13279;51.300;12.394;2024-03-25T11:36:44;4.97;;;2.77;;
25327;SDS011;13279;51.300;12.394;2024-03-25T11:39:11;2.37;;;1.60;;
25327;SDS011;13279;51.300;12.394;2024-03-25T11:41:39;4.63;;;2.53;;
25327;SDS011;13279;51.300;12.394;2024-03-25T11:44:07;3.87;;;2.70;;
25327;SDS011;13279;51.300;12.394;2024-03-25T11:46:33;3.33;;;1.73;;
25327;SDS011;13279;51.300;12.394;2024-03-25T11:49:02;6.20;;;2.30;;
25327;SDS011;13279;51.300;12.394;2024-03-25T11:51:29;3.03;;;1.73;;
25327;SDS011;13279;51.300;12.394;2024-03-25T11:53:56;2.40;;;1.70;;
25327;SDS011;13279;51.300;12.394;2024-03-25T11:56:22;4.53;;;2.10;;
25327;SDS011;13279;51.300;12.394;2024-03-25T11:58:48;3.63;;;1.60;;
25327;SDS011;13279;51.300;12.394;2024-03-25T12:01:16;3.27;;;1.33;;
25327;SDS011;13279;51.300;12.394;2024-03-25T12:03:42;3.37;;;1.70;;
25327;SDS011;13279;51.300;12.394;2024-03-25T12:06:09;1.37;;;1.27;;
25327;SDS011;13279;51.300;12.394;2024-03-25T12:08:35;4.90;;;1.80;;
25327;SDS011;13279;51.300;12.394;2024-03-25T12:11:02;3.33;;;1.30;;
25327;SDS011;13279;51.300;12.394;2024-03-25T12:13:43;4.97;;;1.73;;
25327;SDS011;13279;51.300;12.394;2024-03-25T12:16:10;3.17;;;1.67;;
25327;SDS011;13279;51.300;12.394;2024-03-25T12:18:39;7.60;;;1.93;;
25327;SDS011;13279;51.300;12.394;2024-03-25T12:21:06;5.70;;;1.83;;
25327;SDS011;13279;51.300;12.394;2024-03-25T12:23:33;5.57;;;1.60;;
25327;SDS011;13279;51.300;12.394;2024-03-25T12:26:00;4.33;;;1.47;;
25327;SDS011;13279;51.300;12.394;2024-03-25T12:28:27;5.20;;;1.63;;
25327;SDS011;13279;51.300;12.394;2024-03-25T12:30:54;2.07;;;1.70;;
25327;SDS011;13279;51.300;12.394;2024-03-25T12:33:21;2.83;;;1.77;;
25327;SDS011;13279;51.300;12.394;2024-03-25T12:35:49;5.87;;;1.47;;
25327;SDS011;13279;51.300;12.394;2024-03-25T12:38:23;8.70;;;2.17;;
25327;SDS011;13279;51.300;12.394;2024-03-25T12:40:50;11.77;;;1.80;;
25327;SDS011;13279;51.300;12.394;2024-03-25T12:43:16;8.63;;;1.50;;
25327;SDS011;13279;51.300;12.394;2024-03-25T12:45:42;3.87;;;1.80;;
25327;SDS011;13279;51.300;12.394;2024-03-25T12:48:08;5.37;;;1.43;;
25327;SDS011;13279;51.300;12.394;2024-03-25T12:50:35;2.83;;;1.80;;
25327;SDS011;13279;51.300;12.394;2024-03-25T12:53:03;2.77;;;1.73;;
25327;SDS011;13279;51.300;12.394;2024-03-25T12:55:30;6.50;;;1.50;;
25327;SDS011;13279;51.300;12.394;2024-03-25T12:57:56;4.60;;;1.67;;
25327;SDS011;13279;51.300;12.394;2024-03-25T13:00:22;5.40;;;1.57;;
25327;SDS011;13279;51.300;12.394;2024-03-25T13:02:49;4.53;;;1.80;;
25327;SDS011;13279;51.300;12.394;2024-03-25T13:05:15;3.67;;;1.77;;
25327;SDS011;13279;51.300;12.394;2024-03-25T13:07:41;4.27;;;1.80;;
25327;SDS011;13279;51.300;12.394;2024-03-25T13:10:09;3.73;;;1.70;;
25327;SDS011;13279;51.300;12.394;2024-03-25T13:12:35;3.63;;;1.90;;
25327;SDS011;13279;51.300;12.394;2024-03-25T13:15:02;2.30;;;1.50;;
25327;SDS011;13279;51.300;12.394;2024-03-25T13:17:29;2.60;;;1.87;;
25327;SDS011;13279;51.300;12.394;2024-03-25T13:19:55;1.53;;;1.43;;
25327;SDS011;13279;51.300;12.394;2024-03-25T13:22:21;4.03;;;1.70;;
25327;SDS011;13279;51.300;12.394;2024-03-25T13:24:48;3.23;;;1.30;;
25327;SDS011;13279;51.300;12.394;2024-03-25T13:27:16;3.90;;;1.77;;
25327;SDS011;13279;51.300;12.394;2024-03-25T13:29:42;4.00;;;1.60;;
25327;SDS011;13279;51.300;12.394;2024-03-25T13:32:08;5.93;;;1.70;;
25327;SDS011;13279;51.300;12.394;2024-03-25T13:34:34;4.50;;;1.57;;
25327;SDS011;13279;51.300;12.394;2024-03-25T13:37:01;3.30;;;1.60;;
25327;SDS011;13279;51.300;12.394;2024-03-25T13:39:27;4.07;;;1.53;;
25327;SDS011;13279;51.300;12.394;2024-03-25T13:41:53;3.70;;;1.90;;
25327;SDS011;13279;51.300;12.394;2024-03-25T13:44:21;5.90;;;1.87;;
25327;SDS011;13279;51.300;12.394;2024-03-25T13:46:47;6.17;;;1.77;;
25327;SDS011;13279;51.300;12.394;2024-03-25T13:49:13;5.30;;;1.73;;
25327;SDS011;13279;51.300;12.394;2024-03-25T13:51:39;8.27;;;1.53;;
25327;SDS011;13279;51.300;12.394;2024-03-25T13:54:06;3.53;;;1.60;;
25327;SDS011;13279;51.300;12.394;2024-03-25T13:56:32;2.20;;;1.30;;
25327;SDS011;13279;51.300;12.394;2024-03-25T13:58:58;3.73;;;1.83;;
25327;SDS011;13279;51.300;12.394;2024-03-25T14:01:26;1.90;;;1.60;;
25327;SDS011;13279;51.300;12.394;2024-03-25T14:03:52;5.07;;;2.00;;
25327;SDS011;13279;51.300;12.394;2024-03-25T14:06:18;4.03;;;1.80;;
25327;SDS011;13279;51.300;12.394;2024-03-25T14:08:44;3.53;;;1.53;;
25327;SDS011;13279;51.300;12.394;2024-03-25T14:11:11;3.60;;;1.73;;
25327;SDS011;13279;51.300;12.394;2024-03-25T14:13:37;1.50;;;1.27;;
25327;SDS011;13279;51.300;12.394;2024-03-25T14:16:03;4.70;;;1.50;;
25327;SDS011;13279;51.300;12.394;2024-03-25T14:18:31;7.30;;;1.70;;
25327;SDS011;13279;51.300;12.394;2024-03-25T14:20:57;2.57;;;1.27;;
25327;SDS011;13279;51.300;12.394;2024-03-25T14:23:24;5.43;;;1.27;;
25327;SDS011;13279;51.300;12.394;2024-03-25T14:25:50;2.20;;;1.60;;
25327;SDS011;13279;51.300;12.394;2024-03-25T14:28:16;2.40;;;1.40;;
25327;SDS011;13279;51.300;12.394;2024-03-25T14:30:43;5.93;;;2.27;;
25327;SDS011;13279;51.300;12.394;2024-03-25T14:33:09;1.37;;;1.07;;
25327;SDS011;13279;51.300;12.394;2024-03-25T14:35:36;3.23;;;1.33;;
25327;SDS011;13279;51.300;12.394;2024-03-25T14:38:03;6.27;;;1.77;;